Time;durP1;ratioP1;P1;durP2;ratioP2;P2;SDS_P1;SDS_P2;PMS_P1;PMS_P2;Temp;Humidity;BMP_temperature;BMP_pressure;BME280_temperature;BME280_humidity;BME280_pressure;Samples;Min_cycle;Max_cycle;Signal;HPM_P1;HPM_P2
2023/05/07 00:00:20;;;;;;;4.90;4.60;;;;;;;10.91;nan;96973.75;4940616;28;20234;-60
2023/05/07 00:02:48;;;;;;;4.80;4.50;;;;;;;10.81;nan;96978.56;4931667;28;20221;-60
2023/05/07 00:05:17;;;;;;;4.87;4.57;;;;;;;10.84;nan;96978.19;4909843;28;21928;-60
2023/05/07 00:07:45;;;;;;;4.90;4.50;;;;;;;10.91;nan;96979.06;4948846;28;20653;-58
2023/05/07 00:10:13;;;;;;;5.50;5.00;;;;;;;10.83;nan;96981.84;4948936;28;20295;-59
2023/05/07 00:12:41;;;;;;;4.60;4.30;;;;;;;10.78;nan;96978.94;4909428;28;20233;-61
2023/05/07 00:15:09;;;;;;;5.90;5.50;;;;;;;10.76;nan;96984.44;4917262;28;20215;-60
2023/05/07 00:17:38;;;;;;;5.20;4.80;;;;;;;10.76;nan;96980.94;4948405;28;20226;-56
2023/05/07 00:20:07;;;;;;;5.43;5.13;;;;;;;10.65;nan;96988.41;4951037;28;20718;-61
2023/05/07 00:22:36;;;;;;;5.20;4.90;;;;;;;10.70;nan;96977.25;4907890;28;20514;-60
2023/05/07 00:25:04;;;;;;;5.60;5.20;;;;;;;10.60;nan;96984.66;4947386;28;20425;-61
2023/05/07 00:27:32;;;;;;;6.53;5.87;;;;;;;10.47;nan;96980.88;4900801;28;20272;-61
2023/05/07 00:29:59;;;;;;;6.00;5.50;;;;;;;10.51;nan;96982.16;4929174;28;20229;-63
2023/05/07 00:32:27;;;;;;;5.43;5.13;;;;;;;10.52;nan;96981.13;4949259;28;20272;-63
2023/05/07 00:34:55;;;;;;;6.20;5.80;;;;;;;10.46;nan;96986.38;4953602;28;20202;-63
2023/05/07 00:37:23;;;;;;;5.63;5.17;;;;;;;10.39;nan;96989.72;4898968;28;21330;-62
2023/05/07 00:39:52;;;;;;;5.77;5.27;;;;;;;10.38;nan;96987.28;4950766;28;20792;-60
2023/05/07 00:42:20;;;;;;;6.87;6.20;;;;;;;10.27;nan;96991.25;4935020;28;20327;-63
2023/05/07 00:44:48;;;;;;;6.00;5.60;;;;;;;10.21;nan;96990.16;4912092;28;20237;-62
2023/05/07 00:47:16;;;;;;;6.03;5.67;;;;;;;10.08;nan;96987.34;4944243;28;20471;-60
2023/05/07 00:49:45;;;;;;;6.30;5.90;;;;;;;10.02;nan;96985.44;4931911;28;20672;-63
2023/05/07 00:52:14;;;;;;;6.50;6.00;;;;;;;10.02;nan;96985.44;4951409;28;20206;-62
2023/05/07 00:54:43;;;;;;;6.70;6.13;;;;;;;9.93;nan;96990.84;4904555;28;20422;-61
2023/05/07 00:57:12;;;;;;;6.90;6.27;;;;;;;9.91;nan;96989.38;4946855;28;20221;-61
2023/05/07 00:59:40;;;;;;;6.87;6.17;;;;;;;9.85;nan;96981.19;4908603;28;20230;-60
2023/05/07 01:02:08;;;;;;;6.87;6.13;;;;;;;9.88;nan;96992.41;4938252;28;20615;-59
2023/05/07 01:04:36;;;;;;;6.77;6.30;;;;;;;9.80;nan;96985.38;4955708;28;20225;-59
2023/05/07 01:07:04;;;;;;;6.27;5.87;;;;;;;9.84;nan;96990.13;4949996;28;20244;-62
2023/05/07 01:09:32;;;;;;;7.93;7.23;;;;;;;9.87;nan;96988.13;4874448;28;20241;-59
2023/05/07 01:12:00;;;;;;;7.60;7.10;;;;;;;9.95;nan;96988.00;4952815;28;20385;-59
2023/05/07 01:14:30;;;;;;;7.17;6.67;;;;;;;10.08;nan;96990.84;4908643;28;20209;-60
2023/05/07 01:16:59;;;;;;;6.63;6.03;;;;;;;10.09;nan;96983.69;4955053;28;20628;-60
2023/05/07 01:19:27;;;;;;;7.97;7.30;;;;;;;10.08;nan;96982.91;4946571;28;20237;-62
2023/05/07 01:22:01;;;;;;;8.00;7.40;;;;;;;10.12;nan;96991.28;4954710;28;20753;-60
2023/05/07 01:24:31;;;;;;;8.37;7.77;;;;;;;10.14;nan;96983.97;4903404;28;20229;-62
2023/05/07 01:26:59;;;;;;;7.60;7.00;;;;;;;10.10;nan;96982.69;4952400;28;20213;-56
2023/05/07 01:29:26;;;;;;;8.33;7.60;;;;;;;10.08;nan;96977.59;4924287;28;20285;-61
2023/05/07 01:31:55;;;;;;;8.43;7.80;;;;;;;10.07;nan;96981.25;4944625;28;20205;-57
2023/05/07 01:34:23;;;;;;;8.10;7.43;;;;;;;10.03;nan;96982.59;4948278;28;20624;-58
2023/05/07 01:36:51;;;;;;;8.27;7.57;;;;;;;10.02;nan;96982.81;4949229;28;20741;-59
2023/05/07 01:39:19;;;;;;;9.40;8.53;;;;;;;10.00;nan;96980.34;4945255;28;20328;-59
2023/05/07 01:41:48;;;;;;;8.50;7.70;;;;;;;9.98;nan;96977.88;4904855;28;20593;-59
2023/05/07 01:44:16;;;;;;;8.13;7.53;;;;;;;9.94;nan;96975.78;4949417;28;20291;-61
2023/05/07 01:46:44;;;;;;;8.57;7.87;;;;;;;9.91;nan;96977.00;4922084;28;20379;-55
2023/05/07 01:49:12;;;;;;;8.20;7.47;;;;;;;9.95;nan;96978.25;4951963;28;20853;-58
2023/05/07 01:51:40;;;;;;;7.47;6.97;;;;;;;9.93;nan;96984.72;4950423;28;20536;-58
2023/05/07 01:54:08;;;;;;;7.87;7.37;;;;;;;9.91;nan;96984.09;4946210;28;20210;-60
2023/05/07 01:56:35;;;;;;;7.67;7.10;;;;;;;9.89;nan;96989.59;4901083;28;22728;-59
2023/05/07 01:59:05;;;;;;;8.67;8.13;;;;;;;9.82;nan;96978.91;4950874;28;20527;-60
2023/05/07 02:01:32;;;;;;;8.37;7.53;;;;;;;9.85;nan;96983.81;4919889;28;20444;-60
2023/05/07 02:04:00;;;;;;;9.10;8.50;;;;;;;9.85;nan;96986.47;4948110;28;20237;-50
2023/05/07 02:06:28;;;;;;;8.90;8.30;;;;;;;9.88;nan;96990.59;4948918;28;20224;-60
2023/05/07 02:08:55;;;;;;;8.47;7.77;;;;;;;9.87;nan;96980.19;4952198;28;20264;-63
2023/05/07 02:11:25;;;;;;;9.20;8.40;;;;;;;9.85;nan;96978.53;4921924;28;20205;-62
2023/05/07 02:13:52;;;;;;;8.97;8.07;;;;;;;9.87;nan;96982.81;4942421;28;20234;-61
2023/05/07 02:16:22;;;;;;;8.20;7.60;;;;;;;9.77;nan;96978.66;4920660;28;20379;-58
2023/05/07 02:18:50;;;;;;;8.10;7.60;;;;;;;9.66;nan;96977.28;4948630;28;20946;-59
2023/05/07 02:21:18;;;;;;;8.97;8.23;;;;;;;9.66;nan;96987.03;4950889;28;20634;-58
2023/05/07 02:23:46;;;;;;;9.40;8.63;;;;;;;9.60;nan;96975.38;4948064;28;20726;-57
2023/05/07 02:26:13;;;;;;;8.87;8.17;;;;;;;9.58;nan;96984.47;4948608;28;20677;-58
2023/05/07 02:28:41;;;;;;;8.60;8.00;;;;;;;9.54;nan;96984.03;4901660;28;20497;-60
2023/05/07 02:31:08;;;;;;;9.87;8.97;;;;;;;9.62;nan;96989.22;4924818;28;20307;-57
2023/05/07 02:33:37;;;;;;;8.87;8.27;;;;;;;9.61;nan;96992.03;4949526;28;20211;-63
2023/05/07 02:36:08;;;;;;;8.80;8.03;;;;;;;9.64;nan;96989.88;4952922;28;20209;-58
2023/05/07 02:38:36;;;;;;;9.70;8.80;;;;;;;9.69;nan;96989.31;4944165;28;20232;-56
2023/05/07 02:41:04;;;;;;;9.80;9.10;;;;;;;9.63;nan;96988.22;4951500;28;20575;-59
2023/05/07 02:43:32;;;;;;;10.23;9.43;;;;;;;9.61;nan;96984.09;4898474;28;20291;-58
2023/05/07 02:46:03;;;;;;;12.33;11.23;;;;;;;9.49;nan;96989.06;4956962;28;20226;-56
2023/05/07 02:48:31;;;;;;;11.57;10.47;;;;;;;9.50;nan;96990.69;4918336;28;20245;-60
2023/05/07 02:51:00;;;;;;;10.13;9.23;;;;;;;9.46;nan;96982.28;4951932;28;20743;-57
2023/05/07 02:53:29;;;;;;;10.80;9.90;;;;;;;9.43;nan;96984.47;4942093;28;20205;-57
2023/05/07 02:55:57;;;;;;;10.30;9.50;;;;;;;9.43;nan;96980.00;4949409;28;20271;-61
2023/05/07 02:58:25;;;;;;;10.30;9.50;;;;;;;9.39;nan;96973.44;4916356;28;20866;-60
2023/05/07 03:00:54;;;;;;;10.13;9.40;;;;;;;9.41;nan;96972.25;4939139;28;21030;-58
2023/05/07 03:03:22;;;;;;;10.57;9.77;;;;;;;9.41;nan;96969.59;4921975;28;20531;-61
2023/05/07 03:05:49;;;;;;;10.50;9.60;;;;;;;9.41;nan;96966.16;4951070;28;20323;-56
2023/05/07 03:08:18;;;;;;;9.70;9.00;;;;;;;9.38;nan;96963.88;4939106;28;20209;-61
2023/05/07 03:10:46;;;;;;;10.47;9.67;;;;;;;9.43;nan;96963.31;4949669;28;21212;-58
2023/05/07 03:13:14;;;;;;;10.40;9.40;;;;;;;9.43;nan;96969.44;4951366;28;20249;-57
2023/05/07 03:15:42;;;;;;;10.47;9.73;;;;;;;9.39;nan;96974.25;4894008;28;20218;-56
2023/05/07 03:18:10;;;;;;;10.43;9.53;;;;;;;9.38;nan;96966.53;4951843;28;20217;-56
2023/05/07 03:20:38;;;;;;;10.93;9.93;;;;;;;9.35;nan;96969.53;4924837;28;20218;-59
2023/05/07 03:23:05;;;;;;;9.60;8.80;;;;;;;9.35;nan;96977.47;4950393;28;20728;-54
2023/05/07 03:25:34;;;;;;;9.33;8.63;;;;;;;9.33;nan;96967.06;4945419;28;20229;-59
2023/05/07 03:28:02;;;;;;;10.67;9.67;;;;;;;9.36;nan;96976.47;4951224;28;20268;-59
2023/05/07 03:30:30;;;;;;;10.20;9.50;;;;;;;9.32;nan;96969.88;4902472;28;20206;-61
2023/05/07 03:32:58;;;;;;;10.03;9.23;;;;;;;9.30;nan;96967.41;4946321;28;20214;-60
2023/05/07 03:35:25;;;;;;;10.10;9.37;;;;;;;9.24;nan;96968.94;4924889;28;20214;-60
2023/05/07 03:37:53;;;;;;;10.67;9.77;;;;;;;9.27;nan;96967.78;4948372;28;20214;-58
2023/05/07 03:40:21;;;;;;;10.00;9.30;;;;;;;9.29;nan;96972.91;4950860;28;20229;-59
2023/05/07 03:42:50;;;;;;;10.07;9.37;;;;;;;9.32;nan;96967.25;4954947;28;20213;-61
2023/05/07 03:45:18;;;;;;;11.60;10.60;;;;;;;9.30;nan;96964.78;4924540;28;20446;-57
2023/05/07 03:47:45;;;;;;;11.30;10.33;;;;;;;9.26;nan;96966.13;4903037;28;20225;-57
2023/05/07 03:50:13;;;;;;;11.57;10.50;;;;;;;9.30;nan;96967.41;4907850;28;20360;-63
2023/05/07 03:52:41;;;;;;;10.87;10.07;;;;;;;9.40;nan;96969.81;4946768;28;20930;-64
2023/05/07 03:55:09;;;;;;;11.00;10.10;;;;;;;9.35;nan;96980.09;4957900;28;20297;-59
2023/05/07 03:57:37;;;;;;;12.27;11.07;;;;;;;9.37;nan;96984.19;4944623;28;20407;-60
2023/05/07 04:00:07;;;;;;;10.87;10.07;;;;;;;9.33;nan;96987.41;4955440;28;20283;-60
2023/05/07 04:02:36;;;;;;;10.67;9.97;;;;;;;9.32;nan;96985.75;4905498;28;20409;-60
2023/05/07 04:05:04;;;;;;;11.10;10.27;;;;;;;9.35;nan;96988.84;4949685;28;20594;-60
2023/05/07 04:07:32;;;;;;;10.37;9.57;;;;;;;9.43;nan;96987.94;4922454;28;21224;-60
2023/05/07 04:10:00;;;;;;;11.83;10.97;;;;;;;9.39;nan;96997.25;4952238;28;20994;-55
2023/05/07 04:12:27;;;;;;;11.37;10.37;;;;;;;9.44;nan;96994.03;4938826;28;21078;-58
2023/05/07 04:14:55;;;;;;;11.63;10.63;;;;;;;9.54;nan;96998.06;4957956;28;20265;-57
2023/05/07 04:17:24;;;;;;;10.83;9.97;;;;;;;9.56;nan;97003.19;4901494;28;21545;-62
2023/05/07 04:19:52;;;;;;;12.07;11.17;;;;;;;9.60;nan;96998.34;4946571;28;20234;-59
2023/05/07 04:22:20;;;;;;;11.50;10.33;;;;;;;9.68;nan;96992.97;4928966;28;20219;-58
2023/05/07 04:24:47;;;;;;;11.30;10.40;;;;;;;9.74;nan;96986.94;4933153;28;20580;-57
2023/05/07 04:27:15;;;;;;;11.23;10.33;;;;;;;9.80;nan;96994.16;4938740;28;20361;-60
2023/05/07 04:29:46;;;;;;;10.60;9.80;;;;;;;9.92;nan;96996.31;4955295;28;20229;-60
2023/05/07 04:32:14;;;;;;;10.53;9.73;;;;;;;10.02;nan;96993.41;4957148;28;20213;-62
2023/05/07 04:34:43;;;;;;;11.17;10.27;;;;;;;10.05;nan;96998.31;4906391;28;20870;-63
2023/05/07 04:37:11;;;;;;;11.47;10.47;;;;;;;10.08;nan;97005.88;4940693;28;20779;-61
2023/05/07 04:39:39;;;;;;;10.90;10.00;;;;;;;10.11;nan;97008.16;4918737;28;20222;-62
2023/05/07 04:42:08;;;;;;;10.60;9.80;;;;;;;10.11;nan;97011.66;4937354;28;20575;-61
2023/05/07 04:44:36;;;;;;;11.47;10.47;;;;;;;10.06;nan;97007.91;4946807;28;20453;-62
2023/05/07 04:47:04;;;;;;;11.83;10.87;;;;;;;10.11;nan;97005.50;4957800;28;20237;-61
2023/05/07 04:49:32;;;;;;;11.97;10.33;;;;;;;10.13;nan;97006.16;4901519;28;20848;-63
2023/05/07 04:52:01;;;;;;;11.57;10.57;;;;;;;10.09;nan;97012.81;4948813;28;20674;-57
2023/05/07 04:54:29;;;;;;;11.00;10.10;;;;;;;10.17;nan;97014.56;4920641;28;20958;-62
2023/05/07 04:56:57;;;;;;;10.17;9.47;;;;;;;10.17;nan;97011.91;4916659;28;22028;-60
2023/05/07 04:59:24;;;;;;;11.03;10.20;;;;;;;10.09;nan;97015.47;4952771;28;20225;-59
2023/05/07 05:01:52;;;;;;;10.63;9.93;;;;;;;10.15;nan;97020.03;4945404;28;20210;-62
2023/05/07 05:04:20;;;;;;;11.67;10.67;;;;;;;10.23;nan;97029.69;4904377;28;20668;-60
2023/05/07 05:06:48;;;;;;;10.97;10.07;;;;;;;10.38;nan;97027.81;4951087;28;20688;-62
2023/05/07 05:09:17;;;;;;;11.43;10.53;;;;;;;10.42;nan;97028.31;4926627;28;20756;-62
2023/05/07 05:11:45;;;;;;;10.40;9.60;;;;;;;10.57;nan;97026.44;4936014;28;20221;-62
2023/05/07 05:14:13;;;;;;;10.17;9.47;;;;;;;10.69;nan;97032.06;4935665;28;20679;-61
2023/05/07 05:16:40;;;;;;;10.53;9.57;;;;;;;10.96;nan;97040.28;4932613;28;20218;-62
2023/05/07 05:19:09;;;;;;;10.57;9.80;;;;;;;11.17;nan;97045.75;4946384;28;20555;-61
2023/05/07 05:21:36;;;;;;;9.80;9.00;;;;;;;11.40;nan;97038.41;4920264;28;20941;-60
2023/05/07 05:24:04;;;;;;;10.40;9.60;;;;;;;11.60;nan;97034.25;4924721;28;21075;-59
2023/05/07 05:26:33;;;;;;;9.67;8.97;;;;;;;11.82;nan;97040.31;4924312;28;20485;-61
2023/05/07 05:29:01;;;;;;;10.60;9.80;;;;;;;11.92;nan;97043.41;4937597;28;20308;-60
2023/05/07 05:31:29;;;;;;;9.53;8.83;;;;;;;12.25;nan;97042.78;4940660;28;20503;-61
2023/05/07 05:33:57;;;;;;;10.07;9.27;;;;;;;12.42;nan;97037.94;4951421;28;20220;-61
2023/05/07 05:36:25;;;;;;;10.30;9.50;;;;;;;12.62;nan;97037.16;4901998;28;20217;-58
2023/05/07 05:38:53;;;;;;;9.90;9.20;;;;;;;12.83;nan;97040.72;4952233;28;20279;-64
2023/05/07 05:41:21;;;;;;;10.37;9.27;;;;;;;12.69;nan;97035.38;4914257;28;20332;-58
2023/05/07 05:43:50;;;;;;;9.03;8.33;;;;;;;12.80;nan;97039.25;4936891;28;20543;-60
2023/05/07 05:46:18;;;;;;;10.20;9.37;;;;;;;12.94;nan;97036.63;4938942;28;20272;-61
2023/05/07 05:48:46;;;;;;;10.23;9.33;;;;;;;13.01;nan;97034.81;4941590;28;21692;-59
2023/05/07 05:51:17;;;;;;;9.90;9.10;;;;;;;13.18;nan;97033.38;4920938;28;20210;-60
2023/05/07 05:53:44;;;;;;;9.50;8.73;;;;;;;13.15;nan;97031.13;4914404;28;20508;-58
2023/05/07 05:56:12;;;;;;;9.73;9.03;;;;;;;13.25;nan;97032.53;4920760;28;20538;-61
2023/05/07 05:58:40;;;;;;;10.67;9.70;;;;;;;13.24;nan;97037.06;4917700;28;20272;-60
2023/05/07 06:01:11;;;;;;;10.53;9.57;;;;;;;13.43;nan;97040.78;4928357;28;21416;-58
2023/05/07 06:03:39;;;;;;;9.23;8.50;;;;;;;13.51;nan;97052.22;4946963;28;20466;-59
2023/05/07 06:06:06;;;;;;;9.53;8.83;;;;;;;13.68;nan;97047.28;4927821;28;20348;-59
2023/05/07 06:08:34;;;;;;;9.00;8.30;;;;;;;13.44;nan;97039.75;4869301;28;21188;-59
2023/05/07 06:11:03;;;;;;;9.87;9.17;;;;;;;13.67;nan;97041.16;4891602;28;20675;-56
2023/05/07 06:13:30;;;;;;;10.27;8.97;;;;;;;13.86;nan;97031.50;4906400;28;20300;-56
2023/05/07 06:15:58;;;;;;;9.50;8.70;;;;;;;13.88;nan;97039.28;4924820;28;20992;-60
2023/05/07 06:18:27;;;;;;;9.33;8.63;;;;;;;14.08;nan;97036.53;4948463;28;20245;-58
2023/05/07 06:20:55;;;;;;;10.10;9.20;;;;;;;13.99;nan;97040.47;4924917;28;20436;-59
2023/05/07 06:23:23;;;;;;;9.53;8.60;;;;;;;13.97;nan;97045.19;4877154;28;20222;-61
2023/05/07 06:25:51;;;;;;;10.00;9.17;;;;;;;14.29;nan;97042.63;4920659;28;20214;-57
2023/05/07 06:28:18;;;;;;;9.60;8.90;;;;;;;14.38;nan;97052.03;4936083;28;20205;-61
2023/05/07 06:30:46;;;;;;;9.67;8.60;;;;;;;14.57;nan;97052.97;4913758;28;20265;-57
2023/05/07 06:33:14;;;;;;;9.27;8.67;;;;;;;14.67;nan;97049.84;4929818;28;20668;-60
2023/05/07 06:35:43;;;;;;;9.53;8.70;;;;;;;14.57;nan;97047.63;4927580;28;22224;-59
2023/05/07 06:38:12;;;;;;;8.90;8.27;;;;;;;14.56;nan;97056.66;4922905;28;20705;-60
2023/05/07 06:40:39;;;;;;;8.77;7.97;;;;;;;14.69;nan;97061.13;4897520;28;24543;-57
2023/05/07 06:43:07;;;;;;;10.80;9.67;;;;;;;15.04;nan;97070.56;4944182;28;20214;-60
2023/05/07 06:45:35;;;;;;;10.93;9.97;;;;;;;14.98;nan;97068.78;4893273;28;21039;-60
2023/05/07 06:48:05;;;;;;;10.50;9.57;;;;;;;14.74;nan;97066.66;4953227;28;20632;-60
2023/05/07 06:50:33;;;;;;;9.10;8.50;;;;;;;15.00;nan;97074.69;4898691;28;20436;-55
2023/05/07 06:53:03;;;;;;;9.33;8.63;;;;;;;15.23;nan;97078.66;4925730;28;20424;-57
2023/05/07 06:55:31;;;;;;;8.47;7.87;;;;;;;15.26;nan;97080.91;4875352;28;20534;-56
2023/05/07 06:58:00;;;;;;;8.63;7.93;;;;;;;15.65;nan;97083.47;4955290;28;20201;-56
2023/05/07 07:00:28;;;;;;;9.33;8.63;;;;;;;15.89;nan;97096.00;4930007;28;20689;-57
2023/05/07 07:02:56;;;;;;;9.00;8.40;;;;;;;15.67;nan;97086.72;4942248;28;20682;-61
2023/05/07 07:05:24;;;;;;;9.37;8.67;;;;;;;15.46;nan;97086.88;4951197;28;20457;-61
2023/05/07 07:07:53;;;;;;;9.63;8.90;;;;;;;15.90;nan;97086.13;4949320;28;20226;-59
2023/05/07 07:10:23;;;;;;;9.60;8.70;;;;;;;15.93;nan;97082.22;4917600;28;20233;-60
2023/05/07 07:12:52;;;;;;;9.10;8.43;;;;;;;15.73;nan;97081.34;4926851;28;20225;-59
2023/05/07 07:15:20;;;;;;;9.27;8.57;;;;;;;15.88;nan;97073.00;4931177;28;20220;-60
2023/05/07 07:17:49;;;;;;;9.37;8.67;;;;;;;16.13;nan;97072.16;4932622;28;20548;-58
2023/05/07 07:20:16;;;;;;;9.83;7.97;;;;;;;16.20;nan;97070.22;4956470;28;20247;-58
2023/05/07 07:22:44;;;;;;;8.33;7.77;;;;;;;16.15;nan;97077.25;4931424;28;20307;-58
2023/05/07 07:25:12;;;;;;;8.50;7.90;;;;;;;16.50;nan;97068.63;4954466;28;20217;-58
2023/05/07 07:27:41;;;;;;;8.23;7.63;;;;;;;16.68;nan;97073.13;4908584;28;20589;-58
2023/05/07 07:30:09;;;;;;;8.40;7.70;;;;;;;16.73;nan;97075.13;4934750;28;20237;-60
2023/05/07 07:32:38;;;;;;;9.10;8.40;;;;;;;16.90;nan;97080.66;4937093;28;23035;-58
2023/05/07 07:35:07;;;;;;;9.50;8.60;;;;;;;17.13;nan;97084.47;4924426;28;20788;-59
2023/05/07 07:37:34;;;;;;;8.60;8.00;;;;;;;17.26;nan;97080.78;4949890;28;20297;-57
2023/05/07 07:40:03;;;;;;;8.37;7.87;;;;;;;17.55;nan;97075.59;4949595;28;20468;-57
2023/05/07 07:42:30;;;;;;;8.07;7.53;;;;;;;17.65;nan;97073.16;4874894;28;20575;-60
2023/05/07 07:45:00;;;;;;;9.07;8.30;;;;;;;17.81;nan;97076.22;4929213;28;20701;-59
2023/05/07 07:47:27;;;;;;;8.13;7.63;;;;;;;17.96;nan;97076.53;4958526;28;20359;-60
2023/05/07 07:49:55;;;;;;;7.83;7.10;;;;;;;17.80;nan;97072.69;4935114;28;20234;-58
2023/05/07 07:52:23;;;;;;;7.87;7.30;;;;;;;17.76;nan;97066.19;4951744;28;20210;-61
2023/05/07 07:54:50;;;;;;;6.70;6.30;;;;;;;17.66;nan;97069.44;4933376;28;20213;-60
2023/05/07 07:57:18;;;;;;;8.30;7.70;;;;;;;17.45;nan;97070.81;4904972;28;20210;-59
2023/05/07 07:59:46;;;;;;;7.90;7.40;;;;;;;17.58;nan;97059.06;4924957;28;20800;-61
2023/05/07 08:02:15;;;;;;;8.03;7.33;;;;;;;17.50;nan;97062.91;4942787;28;20775;-61
2023/05/07 08:04:43;;;;;;;7.57;7.07;;;;;;;17.61;nan;97059.41;4940944;28;20853;-60
2023/05/07 08:07:11;;;;;;;7.70;7.20;;;;;;;17.71;nan;97068.75;4951002;28;20792;-57
2023/05/07 08:09:39;;;;;;;8.30;7.67;;;;;;;17.96;nan;97075.72;4953614;28;20226;-59
2023/05/07 08:12:08;;;;;;;7.73;7.13;;;;;;;17.73;nan;97067.44;4873997;28;21430;-59
2023/05/07 08:14:36;;;;;;;8.30;7.60;;;;;;;17.97;nan;97064.78;4952709;28;20901;-60
2023/05/07 08:17:04;;;;;;;8.23;7.53;;;;;;;18.27;nan;97057.63;4907962;28;20711;-60
2023/05/07 08:19:33;;;;;;;7.47;6.90;;;;;;;18.30;nan;97059.84;4938793;28;20613;-62
2023/05/07 08:22:00;;;;;;;8.17;7.57;;;;;;;18.42;nan;97060.66;4949679;28;21258;-57
2023/05/07 08:24:28;;;;;;;7.93;7.43;;;;;;;18.42;nan;97057.97;4950780;28;20614;-61
2023/05/07 08:26:56;;;;;;;8.00;7.40;;;;;;;18.57;nan;97060.13;4951927;28;20213;-59
2023/05/07 08:29:23;;;;;;;7.80;7.10;;;;;;;18.32;nan;97057.75;4904715;28;20242;-58
2023/05/07 08:31:51;;;;;;;7.83;7.20;;;;;;;18.43;nan;97064.13;4921848;28;20825;-58
2023/05/07 08:34:19;;;;;;;9.17;7.80;;;;;;;18.56;nan;97069.25;4934215;28;20712;-60
2023/05/07 08:36:48;;;;;;;8.77;8.07;;;;;;;18.97;nan;97084.50;4926385;28;20625;-58
2023/05/07 08:39:16;;;;;;;8.00;7.47;;;;;;;18.93;nan;97076.09;4900773;28;20248;-61
2023/05/07 08:41:45;;;;;;;8.03;7.43;;;;;;;19.27;nan;97080.72;4932047;28;20221;-61
2023/05/07 08:44:13;;;;;;;8.33;7.53;;;;;;;19.18;nan;97077.63;4907470;28;20731;-57
2023/05/07 08:46:43;;;;;;;8.17;7.63;;;;;;;18.77;nan;97085.72;4940108;28;20218;-61
2023/05/07 08:49:11;;;;;;;7.30;6.80;;;;;;;18.55;nan;97082.88;4954978;28;20237;-60
2023/05/07 08:51:39;;;;;;;7.90;7.40;;;;;;;18.65;nan;97077.72;4931050;28;20300;-60
2023/05/07 08:54:08;;;;;;;8.93;8.13;;;;;;;19.00;nan;97075.97;4925605;28;21156;-61
2023/05/07 08:56:36;;;;;;;8.73;8.13;;;;;;;19.06;nan;97073.13;4905652;28;20222;-64
2023/05/07 08:59:04;;;;;;;9.00;8.20;;;;;;;18.99;nan;97082.41;4907720;28;21294;-58
2023/05/07 09:01:31;;;;;;;8.40;7.80;;;;;;;18.42;nan;97083.97;4946563;28;20275;-61
2023/05/07 09:03:59;;;;;;;9.10;8.40;;;;;;;18.89;nan;97081.09;4939112;28;20217;-62
2023/05/07 09:06:27;;;;;;;8.40;7.70;;;;;;;18.91;nan;97081.69;4940908;28;20210;-60
2023/05/07 09:08:56;;;;;;;8.03;7.50;;;;;;;18.60;nan;97083.81;4926589;28;21143;-60
2023/05/07 09:11:25;;;;;;;8.63;7.83;;;;;;;19.39;nan;97084.16;4956724;28;20492;-59
2023/05/07 09:13:54;;;;;;;9.93;9.03;;;;;;;19.86;nan;97088.38;4950829;28;20276;-60
2023/05/07 09:16:23;;;;;;;9.40;8.70;;;;;;;19.73;nan;97080.66;4901317;28;20313;-61
2023/05/07 09:18:52;;;;;;;10.17;9.43;;;;;;;19.79;nan;97080.50;4925372;28;20553;-58
2023/05/07 09:21:22;;;;;;;8.77;8.17;;;;;;;19.75;nan;97087.44;4913319;28;20221;-62
2023/05/07 09:23:51;;;;;;;8.27;7.63;;;;;;;19.49;nan;97084.34;4945626;28;20216;-62
2023/05/07 09:26:20;;;;;;;8.83;7.90;;;;;;;19.46;nan;97087.50;4929923;28;20222;-57
2023/05/07 09:28:49;;;;;;;7.37;6.87;;;;;;;19.02;nan;97084.59;4915345;28;20242;-59
2023/05/07 09:31:17;;;;;;;8.30;7.70;;;;;;;19.78;nan;97083.41;4900777;28;20339;-60
2023/05/07 09:33:47;;;;;;;7.37;6.80;;;;;;;20.21;nan;97089.16;4928579;28;20756;-61
2023/05/07 09:36:15;;;;;;;9.03;8.33;;;;;;;20.17;nan;97088.84;4955383;28;20213;-59
2023/05/07 09:38:42;;;;;;;7.97;7.27;;;;;;;20.20;nan;97084.84;4934612;28;20319;-60
2023/05/07 09:41:12;;;;;;;8.30;7.70;;;;;;;20.03;nan;97079.50;4934068;28;20657;-60
2023/05/07 09:43:41;;;;;;;8.07;7.50;;;;;;;20.17;nan;97075.38;4949308;28;20765;-61
2023/05/07 09:46:13;;;;;;;7.30;6.80;;;;;;;20.24;nan;97076.00;4953387;28;20706;-60
2023/05/07 09:48:42;;;;;;;9.00;8.23;;;;;;;20.36;nan;97078.59;4915357;28;20241;-58
2023/05/07 09:51:19;;;;;;;8.90;8.20;;;;;;;20.46;nan;97077.91;4934970;28;20220;-59
2023/05/07 09:53:46;;;;;;;8.10;7.40;;;;;;;20.88;nan;97067.63;4933805;28;20485;-58
2023/05/07 09:56:16;;;;;;;7.83;7.33;;;;;;;20.61;nan;97073.78;4947997;28;20555;-60
2023/05/07 09:58:44;;;;;;;7.53;6.93;;;;;;;20.61;nan;97071.91;4936923;28;20241;-61
2023/05/07 10:01:13;;;;;;;7.87;7.10;;;;;;;20.57;nan;97073.47;4950900;28;20213;-61
2023/05/07 10:03:42;;;;;;;7.57;7.07;;;;;;;20.74;nan;97067.19;4903993;28;20684;-60
2023/05/07 10:06:11;;;;;;;8.93;8.33;;;;;;;20.55;nan;97070.22;4942919;28;20221;-61
2023/05/07 10:08:38;;;;;;;8.20;7.50;;;;;;;20.65;nan;97067.63;4922541;28;20240;-61
2023/05/07 10:11:06;;;;;;;6.80;6.40;;;;;;;20.53;nan;97075.03;4952997;28;20434;-59
2023/05/07 10:13:37;;;;;;;6.30;5.80;;;;;;;20.72;nan;97072.84;4925760;28;20704;-60
2023/05/07 10:16:05;;;;;;;7.17;6.57;;;;;;;20.85;nan;97076.22;4950884;28;20642;-61
2023/05/07 10:18:34;;;;;;;7.00;6.40;;;;;;;20.39;nan;97085.38;4895750;28;21071;-59
2023/05/07 10:21:07;;;;;;;6.17;5.60;;;;;;;20.34;nan;97088.78;4932233;28;20209;-61
2023/05/07 10:23:35;;;;;;;6.30;5.80;;;;;;;20.31;nan;97091.19;4911845;28;20225;-61
2023/05/07 10:26:05;;;;;;;6.30;5.90;;;;;;;20.32;nan;97085.53;4948874;28;20214;-59
2023/05/07 10:28:35;;;;;;;7.03;6.53;;;;;;;20.47;nan;97084.91;4928069;28;20833;-59
2023/05/07 10:31:14;;;;;;;6.70;6.17;;;;;;;20.14;nan;97086.66;4952782;28;20271;-61
2023/05/07 10:33:45;;;;;;;6.87;6.27;;;;;;;20.73;nan;97082.53;4948152;28;20240;-62
2023/05/07 10:36:13;;;;;;;7.63;7.13;;;;;;;21.45;nan;97087.03;4895115;28;20218;-60
2023/05/07 10:38:41;;;;;;;6.57;6.07;;;;;;;21.63;nan;97073.16;4915549;28;20632;-58
2023/05/07 10:41:08;;;;;;;6.27;5.87;;;;;;;21.87;nan;97071.97;4949470;28;20430;-59
2023/05/07 10:43:41;;;;;;;6.30;5.90;;;;;;;22.11;nan;97070.53;4945396;28;20495;-61
2023/05/07 10:46:15;;;;;;;7.20;6.53;;;;;;;21.43;nan;97070.31;4939018;28;21017;-63
2023/05/07 10:49:11;;;;;;;5.80;5.40;;;;;;;22.14;nan;97076.47;4950113;28;20475;-61
2023/05/07 10:51:39;;;;;;;5.80;5.40;;;;;;;22.21;nan;97064.38;4901688;28;20678;-61
2023/05/07 10:54:20;;;;;;;6.10;5.50;;;;;;;22.34;nan;97064.97;4914395;28;21040;-62
2023/05/07 10:56:50;;;;;;;5.53;5.20;;;;;;;22.48;nan;97057.22;4951484;28;20277;-62
2023/05/07 10:59:42;;;;;;;6.03;5.53;;;;;;;22.46;nan;97052.06;4957190;28;20225;-63
2023/05/07 11:02:11;;;;;;;5.80;5.30;;;;;;;22.20;nan;97053.84;4942227;28;20550;-64
2023/05/07 11:04:41;;;;;;;5.40;5.10;;;;;;;22.37;nan;97046.38;4944697;28;20640;-63
2023/05/07 11:07:30;;;;;;;5.93;5.60;;;;;;;22.16;nan;97055.44;4909070;28;22082;-63
2023/05/07 11:10:08;;;;;;;5.13;4.77;;;;;;;22.79;nan;97052.72;4917784;28;20236;-62
2023/05/07 11:12:51;;;;;;;5.33;4.93;;;;;;;22.99;nan;97057.34;4938369;28;20598;-61
2023/05/07 11:15:36;;;;;;;4.23;4.03;;;;;;;22.52;nan;97061.81;4928042;28;20597;-65
2023/05/07 11:18:04;;;;;;;10.07;9.10;;;;;;;21.85;nan;97061.47;4948872;28;20233;-64
2023/05/07 11:21:00;;;;;;;5.80;5.30;;;;;;;21.58;nan;97065.03;4949365;28;20820;-60
2023/05/07 11:24:01;;;;;;;6.93;6.43;;;;;;;21.43;nan;97062.22;4923506;28;20214;-61
2023/05/07 11:26:31;;;;;;;6.73;6.30;;;;;;;21.81;nan;97046.88;4845488;29;20808;-61
2023/05/07 11:29:00;;;;;;;5.90;5.40;;;;;;;22.25;nan;97051.16;4860844;29;20248;-61
2023/05/07 11:31:29;;;;;;;4.33;4.13;;;;;;;22.19;nan;97049.50;4885610;28;20535;-61
2023/05/07 11:33:58;;;;;;;4.50;4.20;;;;;;;22.29;nan;97051.44;4925263;28;20224;-61
2023/05/07 11:36:31;;;;;;;6.13;5.63;;;;;;;22.60;nan;97041.59;4958276;28;20587;-62
2023/05/07 11:38:58;;;;;;;5.10;4.60;;;;;;;22.25;nan;97051.16;4899338;28;20543;-62
2023/05/07 11:41:34;;;;;;;5.53;5.23;;;;;;;22.20;nan;97051.97;4939017;28;20205;-61
2023/05/07 11:44:02;;;;;;;5.03;4.63;;;;;;;21.95;nan;97045.34;4940146;28;20379;-65
2023/05/07 11:46:30;;;;;;;4.80;4.50;;;;;;;21.66;nan;97039.50;4930291;28;20566;-63
2023/05/07 11:48:57;;;;;;;5.73;5.37;;;;;;;21.56;nan;97045.59;4932238;28;20875;-62
2023/05/07 11:51:27;;;;;;;5.53;5.23;;;;;;;21.77;nan;97046.59;4953764;28;20287;-57
2023/05/07 11:53:54;;;;;;;5.87;5.47;;;;;;;22.06;nan;97042.69;4901406;28;20655;-62
2023/05/07 11:56:22;;;;;;;4.93;4.63;;;;;;;21.74;nan;97046.28;4931773;28;20605;-62